METAR Data
IDs: Format: Raw Decoded Include TAF

Data at: 0236 UTC 15 Aug 2020

PAMC 150153Z 02009G16KT 10SM FEW050 23/04 A2997 RMK AO2 SLP151 T02280044